createdAt,value
2022-11-05T00:02:01.692Z,10.31
2022-11-05T00:04:46.900Z,10.24
2022-11-05T00:07:36.709Z,10.22
2022-11-05T00:10:30.997Z,10.22
2022-11-05T00:13:17.712Z,10.17
2022-11-05T00:16:03.666Z,10.15
2022-11-05T00:18:30.209Z,10.17
2022-11-05T00:20:56.985Z,10.08
2022-11-05T00:23:45.006Z,10.04
2022-11-05T00:26:12.470Z,10.18
2022-11-05T00:28:44.706Z,10.15
2022-11-05T00:31:13.738Z,10.08
2022-11-05T00:33:43.099Z,10.02
2022-11-05T00:36:11.364Z,10.05
2022-11-05T00:38:37.924Z,10.07
2022-11-05T00:41:04.556Z,10.04
2022-11-05T00:43:49.393Z,10.02
2022-11-05T00:46:15.969Z,10.09
2022-11-05T00:49:04.139Z,10.01
2022-11-05T00:51:30.783Z,10.11
2022-11-05T00:53:57.436Z,10.15
2022-11-05T00:56:23.987Z,9.99
2022-11-05T00:58:50.668Z,10.20
2022-11-05T01:01:17.436Z,10.11
2022-11-05T01:03:50.414Z,9.95
2022-11-05T01:06:18.465Z,9.91
2022-11-05T01:08:46.623Z,9.99
2022-11-05T01:11:33.776Z,9.89
2022-11-05T01:14:09.382Z,9.86
2022-11-05T01:16:36.923Z,9.81
2022-11-05T01:19:05.122Z,9.74
2022-11-05T01:21:32.040Z,9.81
2022-11-05T01:23:58.707Z,9.78
2022-11-05T01:26:26.281Z,9.80
2022-11-05T01:28:57.860Z,9.72
2022-11-05T01:31:24.776Z,9.66
2022-11-05T01:33:51.311Z,9.62
2022-11-05T01:36:18.322Z,9.67
2022-11-05T01:38:45.648Z,9.66
2022-11-05T01:41:12.288Z,9.59
2022-11-05T01:43:59.845Z,9.62
2022-11-05T01:46:36.262Z,9.55
2022-11-05T01:49:09.041Z,9.53
2022-11-05T01:51:35.614Z,9.53
2022-11-05T01:54:07.439Z,9.51
2022-11-05T01:56:39.791Z,9.56
2022-11-05T01:59:13.365Z,9.41
2022-11-05T02:01:40.074Z,9.47
2022-11-05T02:04:10.496Z,9.58
2022-11-05T02:06:46.517Z,9.56
2022-11-05T02:09:22.294Z,9.58
2022-11-05T02:11:51.166Z,9.59
2022-11-05T02:14:18.541Z,9.42
2022-11-05T02:16:45.118Z,9.45
2022-11-05T02:19:30.366Z,9.40
2022-11-05T02:22:24.707Z,9.43
2022-11-05T02:25:02.605Z,9.33
2022-11-05T02:27:41.148Z,9.37
2022-11-05T02:30:22.784Z,9.31
2022-11-05T02:33:22.486Z,9.26
2022-11-05T02:36:15.135Z,9.31
2022-11-05T02:38:50.791Z,9.29
2022-11-05T02:41:39.749Z,9.25
2022-11-05T02:44:26.835Z,9.29
2022-11-05T02:47:30.120Z,9.20
2022-11-05T02:50:05.860Z,9.25
2022-11-05T02:52:48.350Z,9.24
2022-11-05T02:55:26.619Z,9.18
2022-11-05T02:57:56.429Z,9.13
2022-11-05T03:00:38.252Z,9.11
2022-11-05T03:03:08.844Z,9.17
2022-11-05T03:06:01.370Z,9.18
2022-11-05T03:08:59.811Z,9.18
2022-11-05T03:11:30.583Z,9.07
2022-11-05T03:14:25.012Z,9.04
2022-11-05T03:17:01.717Z,9.08
2022-11-05T03:19:58.168Z,9.15
2022-11-05T03:22:30.708Z,9.22
2022-11-05T03:25:03.593Z,9.10
2022-11-05T03:27:37.572Z,9.03
2022-11-05T03:30:10.457Z,9.03
2022-11-05T03:32:43.017Z,9.11
2022-11-05T03:35:18.399Z,9.12
2022-11-05T03:37:49.313Z,9.12
2022-11-05T03:40:18.511Z,9.12
2022-11-05T03:42:51.728Z,9.07
2022-11-05T03:45:24.806Z,9.10
2022-11-05T03:47:57.460Z,9.07
2022-11-05T03:50:37.147Z,9.02
2022-11-05T03:53:16.591Z,9.04
2022-11-05T03:56:18.627Z,9.02
2022-11-05T03:58:46.560Z,9.08
2022-11-05T04:01:13.926Z,9.15
2022-11-05T04:03:40.569Z,9.09
2022-11-05T04:06:28.437Z,9.13
2022-11-05T04:09:13.787Z,9.09
2022-11-05T04:11:59.167Z,9.12
2022-11-05T04:14:26.416Z,9.09
2022-11-05T04:17:09.547Z,8.97
2022-11-05T04:19:56.968Z,9.09
2022-11-05T04:22:43.481Z,9.02
2022-11-05T04:25:14.064Z,9.00
2022-11-05T04:27:40.954Z,8.99
2022-11-05T04:30:19.877Z,9.06
2022-11-05T04:33:07.023Z,9.19
2022-11-05T04:35:39.246Z,9.17
2022-11-05T04:38:10.968Z,9.08
2022-11-05T04:40:38.343Z,9.02
2022-11-05T04:43:08.236Z,8.95
2022-11-05T04:45:37.321Z,8.98
2022-11-05T04:48:04.756Z,8.96
2022-11-05T04:50:32.611Z,8.95
2022-11-05T04:52:59.372Z,8.98
2022-11-05T04:55:27.065Z,9.04
2022-11-05T04:57:55.530Z,9.09
2022-11-05T05:00:23.152Z,8.93
2022-11-05T05:02:49.841Z,8.91
2022-11-05T05:05:16.685Z,9.03
2022-11-05T05:07:43.326Z,8.94
2022-11-05T05:10:11.573Z,8.92
2022-11-05T05:12:38.067Z,8.98
2022-11-05T05:15:05.322Z,9.03
2022-11-05T05:17:31.796Z,9.14
2022-11-05T05:20:16.887Z,8.95
2022-11-05T05:22:43.458Z,8.86
2022-11-05T05:25:10.023Z,8.93
2022-11-05T05:27:36.515Z,8.82
2022-11-05T05:30:03.531Z,8.82
2022-11-05T05:32:30.046Z,8.93
2022-11-05T05:34:56.645Z,8.89
2022-11-05T05:37:23.651Z,9.02
2022-11-05T05:39:50.258Z,8.99
2022-11-05T05:42:16.799Z,8.95
2022-11-05T05:44:43.363Z,8.89
2022-11-05T05:47:09.933Z,8.98
2022-11-05T05:49:36.404Z,8.94
2022-11-05T05:52:03.061Z,8.88
2022-11-05T05:54:33.413Z,8.86
2022-11-05T05:57:01.556Z,8.86
2022-11-05T05:59:28.084Z,8.90
2022-11-05T06:01:55.716Z,8.90
2022-11-05T06:04:22.469Z,8.87
2022-11-05T06:06:49.067Z,8.85
2022-11-05T06:09:16.046Z,8.82
2022-11-05T06:11:42.674Z,8.76
2022-11-05T06:14:13.097Z,8.74
2022-11-05T06:16:40.599Z,8.74
2022-11-05T06:19:07.750Z,8.80
2022-11-05T06:21:34.536Z,8.81
2022-11-05T06:24:02.364Z,8.77
2022-11-05T06:26:29.338Z,8.73
2022-11-05T06:28:56.144Z,8.69
2022-11-05T06:31:23.370Z,8.66
2022-11-05T06:33:49.944Z,8.58
2022-11-05T06:36:18.417Z,8.53
2022-11-05T06:38:45.055Z,8.29
2022-11-05T06:41:11.618Z,8.09
2022-11-05T06:43:38.980Z,8.07
2022-11-05T06:46:06.114Z,8.01
2022-11-05T06:48:33.051Z,8.00
2022-11-05T06:50:59.605Z,8.20
2022-11-05T06:53:26.317Z,8.22
2022-11-05T06:55:52.853Z,8.29
2022-11-05T06:58:19.388Z,8.10
2022-11-05T07:00:46.660Z,8.09
2022-11-05T07:03:13.826Z,8.13
2022-11-05T07:05:45.096Z,8.12
2022-11-05T07:08:11.701Z,8.14
2022-11-05T07:10:38.219Z,8.14
2022-11-05T07:13:08.176Z,8.19
2022-11-05T07:15:35.515Z,8.26
2022-11-05T07:18:02.146Z,8.33
2022-11-05T07:20:33.885Z,8.38
2022-11-05T07:23:07.499Z,8.33
2022-11-05T07:25:35.167Z,8.32
2022-11-05T07:28:02.394Z,8.34
2022-11-05T07:30:30.872Z,8.53
2022-11-05T07:32:57.755Z,8.48
2022-11-05T07:35:24.322Z,8.58
2022-11-05T07:37:56.369Z,8.64
2022-11-05T07:40:25.033Z,8.70
2022-11-05T07:42:53.576Z,8.76
2022-11-05T07:45:20.957Z,8.81
2022-11-05T07:47:49.635Z,9.00
2022-11-05T07:50:17.935Z,9.00
2022-11-05T07:52:45.189Z,9.00
2022-11-05T07:55:13.282Z,9.06
2022-11-05T07:57:44.123Z,9.11
2022-11-05T08:00:14.286Z,9.12
2022-11-05T08:02:41.791Z,9.18
2022-11-05T08:05:10.022Z,9.17
2022-11-05T08:07:39.655Z,9.26
2022-11-05T08:10:10.460Z,9.27
2022-11-05T08:12:40.069Z,9.33
2022-11-05T08:15:07.941Z,9.35
2022-11-05T08:17:34.452Z,9.24
2022-11-05T08:20:00.965Z,9.18
2022-11-05T08:22:27.609Z,9.32
2022-11-05T08:24:54.162Z,9.45
2022-11-05T08:27:20.741Z,9.36
2022-11-05T08:29:47.234Z,9.61
2022-11-05T08:32:13.801Z,9.68
2022-11-05T08:34:40.367Z,9.66
2022-11-05T08:37:10.260Z,9.69
2022-11-05T08:39:37.284Z,9.82
2022-11-05T08:42:03.863Z,9.78
2022-11-05T08:44:30.364Z,9.78
2022-11-05T08:46:57.231Z,9.78
2022-11-05T08:49:23.696Z,9.83
2022-11-05T08:51:50.281Z,9.86
2022-11-05T08:54:16.858Z,9.89
2022-11-05T08:56:43.375Z,9.95
2022-11-05T08:59:09.869Z,9.95
2022-11-05T09:01:36.604Z,9.84
2022-11-05T09:04:03.364Z,9.78
2022-11-05T09:06:30.095Z,9.95
2022-11-05T09:08:56.684Z,10.07
2022-11-05T09:11:37.568Z,10.13
2022-11-05T09:14:10.600Z,10.20
2022-11-05T09:16:37.201Z,10.18
2022-11-05T09:19:04.745Z,10.18
2022-11-05T09:21:31.714Z,10.24
2022-11-05T09:23:58.292Z,10.29
2022-11-05T09:26:24.850Z,10.24
2022-11-05T09:28:51.337Z,10.44
2022-11-05T09:31:17.811Z,10.44
2022-11-05T09:33:44.349Z,10.43
2022-11-05T09:36:11.551Z,10.44
2022-11-05T09:38:38.027Z,10.54
2022-11-05T09:41:07.397Z,10.53
2022-11-05T09:43:40.540Z,10.51
2022-11-05T09:46:28.176Z,10.42
2022-11-05T09:49:04.201Z,10.63
2022-11-05T09:51:31.557Z,10.78
2022-11-05T09:54:01.848Z,10.63
2022-11-05T09:56:32.167Z,10.70
2022-11-05T09:59:07.856Z,10.94
2022-11-05T10:01:37.042Z,10.77
2022-11-05T10:04:16.235Z,10.73
2022-11-05T10:06:49.784Z,10.77
2022-11-05T10:09:34.062Z,10.89
2022-11-05T10:12:06.498Z,10.84
2022-11-05T10:14:47.514Z,10.97
2022-11-05T10:17:24.209Z,11.09
2022-11-05T10:20:13.740Z,11.23
2022-11-05T10:22:49.195Z,11.25
2022-11-05T10:25:19.758Z,11.30
2022-11-05T10:27:51.981Z,11.28
2022-11-05T10:30:18.930Z,11.24
2022-11-05T10:32:46.449Z,11.19
2022-11-05T10:35:18.596Z,11.39
2022-11-05T10:37:46.700Z,11.48
2022-11-05T10:40:19.712Z,11.52
2022-11-05T10:43:42.647Z,11.57
2022-11-05T10:46:32.645Z,11.70
2022-11-05T10:49:08.301Z,11.68
2022-11-05T10:51:35.302Z,11.67
2022-11-05T10:54:13.807Z,11.79
2022-11-05T10:56:41.113Z,11.79
2022-11-05T10:59:21.416Z,11.87
2022-11-05T11:01:55.329Z,11.77
2022-11-05T11:04:25.134Z,11.74
2022-11-05T11:06:54.695Z,11.88
2022-11-05T11:09:25.035Z,11.93
2022-11-05T11:12:15.876Z,12.08
2022-11-05T11:14:42.587Z,12.18
2022-11-05T11:17:23.158Z,12.16
2022-11-05T11:19:49.916Z,12.21
2022-11-05T11:22:19.736Z,12.24
2022-11-05T11:24:53.765Z,12.27
2022-11-05T11:27:26.854Z,12.28
2022-11-05T11:30:00.332Z,12.44
2022-11-05T11:32:33.289Z,12.47
2022-11-05T11:35:01.120Z,12.75
2022-11-05T11:37:37.216Z,12.61
2022-11-05T11:40:14.248Z,12.53
2022-11-05T11:42:44.791Z,12.56
2022-11-05T11:45:24.727Z,12.75
2022-11-05T11:47:51.338Z,12.79
2022-11-05T11:50:43.539Z,12.59
2022-11-05T11:53:22.029Z,12.72
2022-11-05T11:56:17.353Z,12.85
2022-11-05T11:58:55.357Z,13.14
2022-11-05T12:01:41.600Z,13.10
2022-11-05T12:04:32.154Z,13.04
2022-11-05T12:07:16.967Z,13.06
2022-11-05T12:10:13.844Z,13.02
2022-11-05T12:12:51.439Z,13.05
2022-11-05T12:15:20.665Z,13.03
2022-11-05T12:17:57.998Z,12.97
2022-11-05T12:20:48.686Z,12.95
2022-11-05T12:23:37.490Z,13.12
2022-11-05T12:26:17.641Z,13.20
2022-11-05T12:29:18.439Z,13.16
2022-11-05T12:32:10.198Z,12.96
2022-11-05T12:35:03.430Z,12.89
2022-11-05T12:37:55.411Z,12.98
2022-11-05T12:40:52.259Z,13.46
2022-11-05T12:43:31.067Z,13.45
2022-11-05T12:46:09.849Z,13.39
2022-11-05T12:48:51.252Z,13.54
2022-11-05T12:51:46.858Z,13.55
2022-11-05T12:54:34.729Z,13.45
2022-11-05T12:57:03.676Z,13.66
2022-11-05T12:59:39.796Z,13.61
2022-11-05T13:02:29.482Z,13.69
2022-11-05T13:05:05.296Z,13.55
2022-11-05T13:07:39.470Z,13.79
2022-11-05T13:10:17.949Z,13.68
2022-11-05T13:12:48.740Z,13.71
2022-11-05T13:15:29.629Z,13.69
2022-11-05T13:18:03.123Z,13.71
2022-11-05T13:20:33.381Z,13.58
2022-11-05T13:23:13.594Z,13.67
2022-11-05T13:25:50.044Z,13.60
2022-11-05T13:28:39.520Z,13.55
2022-11-05T13:31:13.991Z,13.73
2022-11-05T13:33:42.514Z,13.88
2022-11-05T13:36:49.282Z,13.60
2022-11-05T13:39:41.125Z,13.78
2022-11-05T13:42:23.845Z,13.84
2022-11-05T13:45:14.333Z,13.81
2022-11-05T13:48:02.720Z,13.81
2022-11-05T13:50:29.249Z,13.87
2022-11-05T13:53:07.753Z,13.82
2022-11-05T13:56:01.797Z,13.92
2022-11-05T13:58:48.620Z,13.95
2022-11-05T14:01:18.054Z,13.93
2022-11-05T14:03:50.765Z,13.98
2022-11-05T14:06:43.478Z,13.99
2022-11-05T14:09:11.884Z,13.85
2022-11-05T14:11:42.855Z,13.73
2022-11-05T14:14:22.043Z,13.91
2022-11-05T14:17:06.584Z,14.08
2022-11-05T14:19:36.894Z,14.05
2022-11-05T14:22:48.465Z,14.12
2022-11-05T14:25:17.986Z,14.13
2022-11-05T14:27:48.445Z,14.12
2022-11-05T14:30:47.152Z,14.23
2022-11-05T14:33:17.537Z,14.17
2022-11-05T14:35:44.131Z,14.27
2022-11-05T14:38:25.974Z,14.24
2022-11-05T14:41:01.349Z,14.18
2022-11-05T14:43:31.860Z,14.22
2022-11-05T14:46:06.298Z,14.24
2022-11-05T14:48:50.529Z,14.32
2022-11-05T14:51:31.355Z,14.16
2022-11-05T14:53:59.856Z,14.02
2022-11-05T14:56:26.419Z,14.14
2022-11-05T14:59:24.663Z,14.15
2022-11-05T15:01:58.954Z,14.10
2022-11-05T15:04:25.352Z,14.04
2022-11-05T15:07:04.293Z,14.12
2022-11-05T15:09:34.616Z,14.10
2022-11-05T15:12:09.695Z,14.12
2022-11-05T15:14:50.219Z,14.11
2022-11-05T15:17:30.773Z,14.04
2022-11-05T15:20:22.434Z,14.11
2022-11-05T15:22:58.492Z,14.05
2022-11-05T15:25:32.725Z,13.98
2022-11-05T15:28:17.936Z,13.97
2022-11-05T15:31:01.345Z,13.99
2022-11-05T15:33:28.816Z,14.04
2022-11-05T15:35:56.355Z,14.09
2022-11-05T15:38:35.109Z,14.00
2022-11-05T15:41:13.730Z,13.99
2022-11-05T15:43:48.342Z,13.93
2022-11-05T15:46:24.364Z,13.92
2022-11-05T15:48:53.185Z,13.91
2022-11-05T15:51:21.861Z,13.96
2022-11-05T15:54:15.698Z,13.90
2022-11-05T15:56:45.959Z,13.84
2022-11-05T15:59:18.193Z,13.78
2022-11-05T16:02:03.676Z,13.67
2022-11-05T16:04:33.549Z,13.69
2022-11-05T16:07:06.625Z,13.69
2022-11-05T16:09:36.238Z,13.68
2022-11-05T16:12:11.838Z,13.64
2022-11-05T16:14:38.433Z,13.60
2022-11-05T16:17:23.237Z,13.50
2022-11-05T16:19:50.768Z,13.46
2022-11-05T16:22:18.257Z,13.43
2022-11-05T16:24:45.715Z,13.39
2022-11-05T16:27:22.484Z,13.27
2022-11-05T16:29:54.496Z,13.27
2022-11-05T16:32:31.719Z,13.16
2022-11-05T16:35:02.792Z,13.04
2022-11-05T16:37:39.999Z,12.94
2022-11-05T16:40:14.282Z,12.89
2022-11-05T16:42:41.725Z,12.90
2022-11-05T16:45:13.601Z,12.90
2022-11-05T16:47:40.682Z,12.76
2022-11-05T16:50:21.799Z,12.62
2022-11-05T16:52:48.397Z,12.56
2022-11-05T16:55:15.924Z,12.63
2022-11-05T16:57:45.456Z,12.57
2022-11-05T17:00:16.304Z,12.62
2022-11-05T17:02:43.560Z,12.56
2022-11-05T17:05:22.361Z,12.47
2022-11-05T17:07:48.881Z,12.30
2022-11-05T17:10:15.453Z,12.25
2022-11-05T17:12:43.019Z,12.21
2022-11-05T17:15:36.624Z,12.19
2022-11-05T17:18:05.001Z,12.10
2022-11-05T17:20:41.624Z,12.09
2022-11-05T17:23:10.847Z,12.03
2022-11-05T17:25:39.288Z,11.96
2022-11-05T17:28:06.675Z,11.95
2022-11-05T17:30:33.240Z,11.88
2022-11-05T17:33:00.149Z,11.79
2022-11-05T17:35:27.285Z,11.74
2022-11-05T17:37:54.030Z,11.69
2022-11-05T17:40:25.226Z,11.75
2022-11-05T17:42:53.074Z,11.73
2022-11-05T17:45:19.755Z,11.71
2022-11-05T17:47:46.329Z,11.72
2022-11-05T17:50:14.721Z,11.71
2022-11-05T17:52:41.416Z,11.66
2022-11-05T17:55:16.482Z,11.63
2022-11-05T17:57:47.825Z,11.52
2022-11-05T18:00:22.736Z,11.49
2022-11-05T18:02:50.158Z,11.58
2022-11-05T18:05:18.206Z,11.56
2022-11-05T18:07:45.668Z,11.48
2022-11-05T18:10:12.547Z,11.39
2022-11-05T18:12:39.563Z,11.25
2022-11-05T18:15:07.217Z,11.26
2022-11-05T18:17:34.477Z,11.35
2022-11-05T18:20:01.066Z,11.26
2022-11-05T18:22:27.968Z,11.33
2022-11-05T18:24:55.438Z,11.28
2022-11-05T18:27:24.594Z,11.20
2022-11-05T18:29:51.299Z,11.18
2022-11-05T18:32:17.853Z,11.17
2022-11-05T18:34:44.458Z,11.12
2022-11-05T18:37:11.103Z,11.00
2022-11-05T18:39:37.604Z,11.03
2022-11-05T18:42:04.611Z,11.05
2022-11-05T18:44:36.275Z,10.92
2022-11-05T18:47:06.892Z,10.91
2022-11-05T18:49:33.925Z,10.95
2022-11-05T18:52:00.563Z,10.95
2022-11-05T18:54:27.121Z,10.93
2022-11-05T18:56:53.759Z,10.86
2022-11-05T18:59:38.249Z,10.79
2022-11-05T19:02:07.522Z,10.77
2022-11-05T19:04:37.439Z,10.80
2022-11-05T19:07:05.789Z,10.74
2022-11-05T19:09:37.396Z,10.78
2022-11-05T19:12:05.576Z,10.82
2022-11-05T19:14:32.111Z,10.84
2022-11-05T19:16:59.445Z,10.81
2022-11-05T19:19:26.199Z,10.65
2022-11-05T19:21:53.217Z,10.56
2022-11-05T19:24:20.060Z,10.61
2022-11-05T19:26:47.503Z,10.66
2022-11-05T19:29:14.202Z,10.64
2022-11-05T19:31:40.738Z,10.58
2022-11-05T19:34:08.235Z,10.62
2022-11-05T19:36:34.784Z,10.60
2022-11-05T19:39:08.946Z,10.54
2022-11-05T19:41:35.668Z,10.47
2022-11-05T19:44:02.236Z,10.60
2022-11-05T19:46:30.090Z,10.58
2022-11-05T19:48:56.922Z,10.56
2022-11-05T19:51:26.194Z,10.55
2022-11-05T19:53:55.183Z,10.61
2022-11-05T19:56:24.447Z,10.44
2022-11-05T19:58:52.999Z,10.37
2022-11-05T20:01:20.753Z,10.25
2022-11-05T20:03:47.668Z,10.28
2022-11-05T20:06:17.968Z,10.27
2022-11-05T20:09:07.157Z,10.23
2022-11-05T20:11:31.806Z,10.25
2022-11-05T20:13:58.597Z,10.29
2022-11-05T20:16:36.787Z,10.25
2022-11-05T20:19:09.618Z,10.27
2022-11-05T20:21:36.227Z,10.22
2022-11-05T20:24:02.897Z,10.20
2022-11-05T20:26:30.099Z,10.24
2022-11-05T20:28:57.850Z,10.19
2022-11-05T20:31:24.579Z,10.10
2022-11-05T20:33:51.438Z,10.12
2022-11-05T20:36:22.493Z,10.11
2022-11-05T20:38:50.500Z,10.08
2022-11-05T20:41:17.796Z,10.02
2022-11-05T20:43:44.725Z,10.07
2022-11-05T20:46:14.178Z,10.06
2022-11-05T20:48:41.109Z,9.95
2022-11-05T20:51:10.982Z,9.90
2022-11-05T20:53:38.321Z,9.92
2022-11-05T20:56:08.529Z,9.95
2022-11-05T20:58:37.153Z,9.95
2022-11-05T21:01:05.372Z,9.91
2022-11-05T21:03:32.242Z,9.88
2022-11-05T21:05:59.982Z,9.84
2022-11-05T21:08:27.877Z,9.84
2022-11-05T21:10:55.460Z,9.82
2022-11-05T21:13:24.774Z,9.83
2022-11-05T21:15:54.775Z,9.72
2022-11-05T21:18:23.205Z,9.62
2022-11-05T21:20:50.353Z,9.57
2022-11-05T21:23:17.396Z,9.66
2022-11-05T21:25:44.571Z,9.63
2022-11-05T21:28:13.114Z,9.64
2022-11-05T21:30:44.931Z,9.62
2022-11-05T21:33:12.975Z,9.59
2022-11-05T21:35:44.938Z,9.59
2022-11-05T21:38:13.681Z,9.65
2022-11-05T21:40:40.983Z,9.67
2022-11-05T21:43:07.846Z,9.66
2022-11-05T21:45:34.535Z,9.61
2022-11-05T21:48:01.100Z,9.54
2022-11-05T21:50:46.194Z,9.53
2022-11-05T21:53:35.181Z,9.46
2022-11-05T21:56:39.898Z,9.41
2022-11-05T21:59:25.248Z,9.40
2022-11-05T22:02:01.269Z,9.33
2022-11-05T22:04:36.321Z,9.32
2022-11-05T22:07:03.249Z,9.32
2022-11-05T22:09:29.934Z,9.28
2022-11-05T22:11:56.581Z,9.30
2022-11-05T22:14:24.148Z,9.31
2022-11-05T22:16:50.916Z,9.33
2022-11-05T22:19:18.592Z,9.32
2022-11-05T22:21:45.509Z,9.29
2022-11-05T22:24:12.178Z,9.26
2022-11-05T22:26:39.983Z,9.24
2022-11-05T22:29:07.516Z,9.25
2022-11-05T22:31:36.558Z,9.22
2022-11-05T22:34:04.688Z,9.18
2022-11-05T22:36:32.253Z,9.21
2022-11-05T22:38:58.771Z,9.17
2022-11-05T22:41:25.415Z,9.10
2022-11-05T22:43:52.010Z,9.09
2022-11-05T22:46:21.854Z,9.03
2022-11-05T22:48:49.223Z,8.96
2022-11-05T22:51:21.321Z,8.91
2022-11-05T22:53:48.892Z,8.88
2022-11-05T22:56:18.255Z,8.83
2022-11-05T22:58:45.168Z,8.83
2022-11-05T23:01:12.933Z,8.85
2022-11-05T23:03:41.284Z,8.75
2022-11-05T23:06:47.594Z,8.81
2022-11-05T23:09:38.377Z,8.79
2022-11-05T23:12:08.147Z,8.86
2022-11-05T23:14:36.465Z,8.80
2022-11-05T23:17:21.725Z,8.79
2022-11-05T23:20:07.057Z,8.83
2022-11-05T23:22:51.938Z,8.82
2022-11-05T23:25:21.492Z,8.80
2022-11-05T23:27:50.686Z,8.82
2022-11-05T23:30:23.501Z,8.77
2022-11-05T23:32:51.076Z,8.66
2022-11-05T23:35:38.293Z,8.59
2022-11-05T23:38:23.391Z,8.58
2022-11-05T23:41:08.830Z,8.57
2022-11-05T23:43:53.575Z,8.51
2022-11-05T23:46:38.894Z,8.49
2022-11-05T23:49:05.440Z,8.47
2022-11-05T23:51:31.910Z,8.49
2022-11-05T23:53:58.409Z,8.44
2022-11-05T23:56:25.162Z,8.32
2022-11-05T23:58:51.646Z,8.27
